sensor_id;sensor_type;location;lat;lon;timestamp;pressure;altitude;pressure_sealevel;temperature;humidity
60371;BME280;48550;40.588;49.684;2023-04-04T00:01:03;101788.53;;;7.93;100.00
60371;BME280;48550;40.588;49.684;2023-04-04T00:03:28;101784.44;;;7.97;100.00
60371;BME280;48550;40.588;49.684;2023-04-04T00:05:54;101785.47;;;7.96;100.00
60371;BME280;48550;40.588;49.684;2023-04-04T00:08:21;101787.75;;;8.00;100.00
60371;BME280;48550;40.588;49.684;2023-04-04T00:10:47;101784.44;;;7.97;100.00
60371;BME280;48550;40.588;49.684;2023-04-04T00:13:12;101778.28;;;7.97;100.00
60371;BME280;48550;40.588;49.684;2023-04-04T00:15:38;101791.00;;;7.95;100.00
60371;BME280;48550;40.588;49.684;2023-04-04T00:18:04;101777.81;;;7.93;100.00
60371;BME280;48550;40.588;49.684;2023-04-04T00:20:30;101781.53;;;7.92;100.00
60371;BME280;48550;40.588;49.684;2023-04-04T00:22:56;101787.88;;;7.91;100.00
60371;BME280;48550;40.588;49.684;2023-04-04T00:25:25;101782.72;;;7.90;100.00
60371;BME280;48550;40.588;49.684;2023-04-04T00:27:50;101790.09;;;7.88;100.00
60371;BME280;48550;40.588;49.684;2023-04-04T00:30:16;101783.56;;;7.90;100.00
60371;BME280;48550;40.588;49.684;2023-04-04T00:32:41;101792.59;;;7.89;100.00
60371;BME280;48550;40.588;49.684;2023-04-04T00:35:08;101781.44;;;7.86;100.00
60371;BME280;48550;40.588;49.684;2023-04-04T00:37:33;101786.97;;;7.84;100.00
60371;BME280;48550;40.588;49.684;2023-04-04T00:40:00;101787.63;;;7.86;100.00
60371;BME280;48550;40.588;49.684;2023-04-04T00:42:26;101789.28;;;7.87;100.00
60371;BME280;48550;40.588;49.684;2023-04-04T00:44:52;101798.75;;;7.90;100.00
60371;BME280;48550;40.588;49.684;2023-04-04T00:47:21;101788.63;;;7.85;100.00
60371;BME280;48550;40.588;49.684;2023-04-04T00:49:47;101788.44;;;7.87;100.00
60371;BME280;48550;40.588;49.684;2023-04-04T00:52:13;101792.22;;;7.92;100.00
60371;BME280;48550;40.588;49.684;2023-04-04T00:54:39;101782.34;;;7.93;100.00
60371;BME280;48550;40.588;49.684;2023-04-04T00:57:06;101792.66;;;7.96;100.00
60371;BME280;48550;40.588;49.684;2023-04-04T00:59:33;101791.84;;;7.95;100.00
60371;BME280;48550;40.588;49.684;2023-04-04T01:01:59;101796.72;;;7.92;100.00
60371;BME280;48550;40.588;49.684;2023-04-04T01:04:26;101797.94;;;7.89;100.00
60371;BME280;48550;40.588;49.684;2023-04-04T01:06:54;101799.97;;;7.87;100.00
60371;BME280;48550;40.588;49.684;2023-04-04T01:09:20;101800.16;;;7.86;100.00
60371;BME280;48550;40.588;49.684;2023-04-04T01:11:47;101798.69;;;7.83;100.00
60371;BME280;48550;40.588;49.684;2023-04-04T01:14:13;101793.97;;;7.85;100.00
60371;BME280;48550;40.588;49.684;2023-04-04T01:16:40;101789.28;;;7.87;100.00
60371;BME280;48550;40.588;49.684;2023-04-04T01:19:08;101788.25;;;7.88;100.00
60371;BME280;48550;40.588;49.684;2023-04-04T01:21:38;101791.94;;;7.87;100.00
60371;BME280;48550;40.588;49.684;2023-04-04T01:24:05;101802.25;;;7.90;100.00
60371;BME280;48550;40.588;49.684;2023-04-04T01:26:32;101793.03;;;7.93;100.00
60371;BME280;48550;40.588;49.684;2023-04-04T01:28:58;101794.69;;;7.94;100.00
60371;BME280;48550;40.588;49.684;2023-04-04T01:31:59;101785.66;;;7.95;100.00
60371;BME280;48550;40.588;49.684;2023-04-04T01:38:07;101791.25;;;8.00;100.00
60371;BME280;48550;40.588;49.684;2023-04-04T01:40:37;101792.72;;;8.03;100.00
60371;BME280;48550;40.588;49.684;2023-04-04T01:43:03;101807.56;;;8.05;100.00
60371;BME280;48550;40.588;49.684;2023-04-04T01:45:29;101808.00;;;8.09;100.00
60371;BME280;48550;40.588;49.684;2023-04-04T01:47:55;101812.66;;;8.00;100.00
60371;BME280;48550;40.588;49.684;2023-04-04T01:50:24;101809.97;;;8.00;100.00
60371;BME280;48550;40.588;49.684;2023-04-04T01:52:50;101809.22;;;8.06;100.00
60371;BME280;48550;40.588;49.684;2023-04-04T01:55:16;101818.06;;;8.07;100.00
60371;BME280;48550;40.588;49.684;2023-04-04T01:57:42;101814.88;;;7.96;100.00
60371;BME280;48550;40.588;49.684;2023-04-04T02:00:08;101813.97;;;7.89;100.00
60371;BME280;48550;40.588;49.684;2023-04-04T02:02:34;101807.44;;;7.92;100.00
60371;BME280;48550;40.588;49.684;2023-04-04T02:04:59;101812.13;;;7.90;100.00
60371;BME280;48550;40.588;49.684;2023-04-04T02:07:26;101809.66;;;7.88;100.00
60371;BME280;48550;40.588;49.684;2023-04-04T02:09:51;101814.44;;;7.93;100.00
60371;BME280;48550;40.588;49.684;2023-04-04T02:12:17;101824.22;;;7.86;100.00
60371;BME280;48550;40.588;49.684;2023-04-04T02:14:43;101831.50;;;7.77;100.00
60371;BME280;48550;40.588;49.684;2023-04-04T02:17:09;101830.38;;;7.86;100.00
60371;BME280;48550;40.588;49.684;2023-04-04T02:19:35;101824.41;;;7.84;100.00
60371;BME280;48550;40.588;49.684;2023-04-04T02:22:01;101833.88;;;7.87;100.00
60371;BME280;48550;40.588;49.684;2023-04-04T02:24:26;101833.06;;;7.86;100.00
60371;BME280;48550;40.588;49.684;2023-04-04T02:26:52;101830.38;;;7.86;100.00
60371;BME280;48550;40.588;49.684;2023-04-04T02:29:18;101834.72;;;7.87;100.00
60371;BME280;48550;40.588;49.684;2023-04-04T02:31:43;101839.41;;;7.85;100.00
60371;BME280;48550;40.588;49.684;2023-04-04T02:34:10;101832.69;;;7.89;100.00
60371;BME280;48550;40.588;49.684;2023-04-04T02:36:36;101827.53;;;7.88;100.00
60371;BME280;48550;40.588;49.684;2023-04-04T02:39:02;101835.63;;;7.94;100.00
60371;BME280;48550;40.588;49.684;2023-04-04T02:41:28;101839.84;;;8.04;100.00
60371;BME280;48550;40.588;49.684;2023-04-04T02:43:54;101829.34;;;8.02;100.00
60371;BME280;48550;40.588;49.684;2023-04-04T02:46:20;101844.63;;;8.08;100.00
60371;BME280;48550;40.588;49.684;2023-04-04T02:48:46;101835.47;;;8.17;100.00
60371;BME280;48550;40.588;49.684;2023-04-04T02:51:11;101849.31;;;8.21;100.00
60371;BME280;48550;40.588;49.684;2023-04-04T02:53:37;101852.69;;;8.29;100.00
60371;BME280;48550;40.588;49.684;2023-04-04T02:56:03;101856.09;;;8.38;100.00
60371;BME280;48550;40.588;49.684;2023-04-04T02:58:33;101858.34;;;8.56;100.00
60371;BME280;48550;40.588;49.684;2023-04-04T03:00:59;101865.97;;;9.02;100.00
60371;BME280;48550;40.588;49.684;2023-04-04T03:03:25;101866.47;;;9.46;100.00
60371;BME280;48550;40.588;49.684;2023-04-04T03:05:51;101875.19;;;9.55;100.00
60371;BME280;48550;40.588;49.684;2023-04-04T03:08:17;101881.66;;;9.67;100.00
60371;BME280;48550;40.588;49.684;2023-04-04T03:10:45;101891.38;;;9.68;100.00
60371;BME280;48550;40.588;49.684;2023-04-04T03:13:11;101887.25;;;9.72;100.00
60371;BME280;48550;40.588;49.684;2023-04-04T03:15:37;101892.81;;;9.71;100.00
60371;BME280;48550;40.588;49.684;2023-04-04T03:18:05;101900.44;;;9.67;100.00
60371;BME280;48550;40.588;49.684;2023-04-04T03:20:31;101901.59;;;9.58;100.00
60371;BME280;48550;40.588;49.684;2023-04-04T03:22:57;101908.16;;;9.55;100.00
60371;BME280;48550;40.588;49.684;2023-04-04T03:25:23;101914.84;;;9.66;100.00
60371;BME280;48550;40.588;49.684;2023-04-04T03:27:49;101910.16;;;9.75;100.00
60371;BME280;48550;40.588;49.684;2023-04-04T03:30:14;101911.88;;;9.89;100.00
60371;BME280;48550;40.588;49.684;2023-04-04T03:32:40;101917.47;;;9.94;100.00
60371;BME280;48550;40.588;49.684;2023-04-04T03:35:06;101921.44;;;10.05;100.00
60371;BME280;48550;40.588;49.684;2023-04-04T03:37:32;101918.38;;;10.14;100.00
60371;BME280;48550;40.588;49.684;2023-04-04T03:39:58;101927.78;;;10.32;100.00
60371;BME280;48550;40.588;49.684;2023-04-04T03:42:24;101925.97;;;10.45;100.00
60371;BME280;48550;40.588;49.684;2023-04-04T03:44:51;101937.94;;;10.43;100.00
60371;BME280;48550;40.588;49.684;2023-04-04T03:47:18;101936.53;;;10.54;100.00
60371;BME280;48550;40.588;49.684;2023-04-04T03:49:45;101944.22;;;10.70;100.00
60371;BME280;48550;40.588;49.684;2023-04-04T03:52:10;101939.69;;;10.90;100.00
60371;BME280;48550;40.588;49.684;2023-04-04T03:54:36;101949.22;;;11.06;100.00
60371;BME280;48550;40.588;49.684;2023-04-04T03:57:02;101945.31;;;11.28;100.00
60371;BME280;48550;40.588;49.684;2023-04-04T03:59:28;101954.63;;;11.39;100.00
60371;BME280;48550;40.588;49.684;2023-04-04T04:01:54;101948.41;;;11.45;100.00
60371;BME280;48550;40.588;49.684;2023-04-04T04:04:20;101959.16;;;11.58;100.00
60371;BME280;48550;40.588;49.684;2023-04-04T04:06:45;101966.56;;;11.69;100.00
60371;BME280;48550;40.588;49.684;2023-04-04T04:09:13;101970.50;;;11.87;100.00
60371;BME280;48550;40.588;49.684;2023-04-04T04:11:42;101972.56;;;11.98;100.00
60371;BME280;48550;40.588;49.684;2023-04-04T04:14:08;101974.69;;;12.40;100.00
60371;BME280;48550;40.588;49.684;2023-04-04T04:16:34;101978.78;;;12.50;100.00
60371;BME280;48550;40.588;49.684;2023-04-04T04:19:03;101980.50;;;12.37;100.00
60371;BME280;48550;40.588;49.684;2023-04-04T04:21:29;101990.19;;;12.45;100.00
60371;BME280;48550;40.588;49.684;2023-04-04T04:23:54;101982.13;;;12.45;100.00
60371;BME280;48550;40.588;49.684;2023-04-04T04:26:20;101981.09;;;12.84;100.00
60371;BME280;48550;40.588;49.684;2023-04-04T04:28:46;101983.19;;;13.45;100.00
60371;BME280;48550;40.588;49.684;2023-04-04T04:31:14;101988.59;;;13.45;100.00
60371;BME280;48550;40.588;49.684;2023-04-04T04:33:40;101989.75;;;13.56;100.00
60371;BME280;48550;40.588;49.684;2023-04-04T04:36:06;101995.16;;;13.24;100.00
60371;BME280;48550;40.588;49.684;2023-04-04T04:38:32;101995.31;;;12.98;100.00
60371;BME280;48550;40.588;49.684;2023-04-04T04:40:59;102000.97;;;12.45;100.00
60371;BME280;48550;40.588;49.684;2023-04-04T04:43:25;102003.78;;;12.12;100.00
60371;BME280;48550;40.588;49.684;2023-04-04T04:45:52;101996.16;;;11.83;100.00
60371;BME280;48550;40.588;49.684;2023-04-04T04:48:17;102000.31;;;11.78;100.00
60371;BME280;48550;40.588;49.684;2023-04-04T04:50:44;102018.09;;;11.66;100.00
60371;BME280;48550;40.588;49.684;2023-04-04T04:53:10;102009.81;;;11.41;100.00
60371;BME280;48550;40.588;49.684;2023-04-04T04:55:36;102009.19;;;11.20;100.00
60371;BME280;48550;40.588;49.684;2023-04-04T04:58:02;102008.56;;;11.18;100.00
60371;BME280;48550;40.588;49.684;2023-04-04T05:00:28;102005.66;;;11.12;100.00
60371;BME280;48550;40.588;49.684;2023-04-04T05:02:54;102011.63;;;11.01;100.00
60371;BME280;48550;40.588;49.684;2023-04-04T05:05:21;102013.25;;;10.96;100.00
60371;BME280;48550;40.588;49.684;2023-04-04T05:07:47;102007.09;;;11.08;100.00
60371;BME280;48550;40.588;49.684;2023-04-04T05:10:13;102015.78;;;11.10;100.00
60371;BME280;48550;40.588;49.684;2023-04-04T05:12:43;102019.69;;;11.01;100.00
60371;BME280;48550;40.588;49.684;2023-04-04T05:15:10;102012.84;;;10.99;100.00
60371;BME280;48550;40.588;49.684;2023-04-04T05:17:37;102017.88;;;11.15;100.00
60371;BME280;48550;40.588;49.684;2023-04-04T05:20:03;102026.16;;;11.33;100.00
60371;BME280;48550;40.588;49.684;2023-04-04T05:22:29;102022.44;;;11.28;100.00
60371;BME280;48550;40.588;49.684;2023-04-04T05:24:54;102028.84;;;11.33;100.00
60371;BME280;48550;40.588;49.684;2023-04-04T05:27:20;102027.19;;;11.39;100.00
60371;BME280;48550;40.588;49.684;2023-04-04T05:29:46;102043.13;;;11.47;100.00
60371;BME280;48550;40.588;49.684;2023-04-04T05:32:13;102041.06;;;11.42;100.00
60371;BME280;48550;40.588;49.684;2023-04-04T05:34:38;102046.63;;;11.48;100.00
60371;BME280;48550;40.588;49.684;2023-04-04T05:37:04;102049.75;;;11.51;100.00
60371;BME280;48550;40.588;49.684;2023-04-04T05:39:30;102052.84;;;11.55;100.00
60371;BME280;48550;40.588;49.684;2023-04-04T05:41:56;102057.59;;;11.72;100.00
60371;BME280;48550;40.588;49.684;2023-04-04T05:44:22;102055.75;;;11.80;100.00
60371;BME280;48550;40.588;49.684;2023-04-04T05:46:47;102053.06;;;11.66;100.00
60371;BME280;48550;40.588;49.684;2023-04-04T05:49:13;102054.13;;;11.78;100.00
60371;BME280;48550;40.588;49.684;2023-04-04T05:51:39;102052.03;;;12.00;100.00
60371;BME280;48550;40.588;49.684;2023-04-04T05:54:05;102042.06;;;12.21;100.00
60371;BME280;48550;40.588;49.684;2023-04-04T05:56:33;102055.31;;;12.22;100.00
60371;BME280;48550;40.588;49.684;2023-04-04T05:58:59;102061.72;;;12.21;100.00
60371;BME280;48550;40.588;49.684;2023-04-04T06:01:25;102063.34;;;12.35;100.00
60371;BME280;48550;40.588;49.684;2023-04-04T06:03:51;102065.34;;;12.53;100.00
60371;BME280;48550;40.588;49.684;2023-04-04T06:06:17;102065.75;;;12.63;100.00
60371;BME280;48550;40.588;49.684;2023-04-04T06:08:43;102072.34;;;12.74;100.00
60371;BME280;48550;40.588;49.684;2023-04-04T06:11:09;102073.78;;;12.77;100.00
60371;BME280;48550;40.588;49.684;2023-04-04T06:13:35;102074.44;;;12.59;100.00
60371;BME280;48550;40.588;49.684;2023-04-04T06:16:00;102064.75;;;12.51;100.00
60371;BME280;48550;40.588;49.684;2023-04-04T06:18:26;102074.25;;;12.54;100.00
60371;BME280;48550;40.588;49.684;2023-04-04T06:20:52;102082.03;;;12.17;100.00
60371;BME280;48550;40.588;49.684;2023-04-04T06:23:17;102089.03;;;12.31;100.00
60371;BME280;48550;40.588;49.684;2023-04-04T06:25:43;102094.38;;;12.51;100.00
60371;BME280;48550;40.588;49.684;2023-04-04T06:28:09;102092.47;;;12.58;100.00
60371;BME280;48550;40.588;49.684;2023-04-04T06:30:36;102091.19;;;12.81;100.00
60371;BME280;48550;40.588;49.684;2023-04-04T06:33:05;102086.63;;;12.81;100.00
60371;BME280;48550;40.588;49.684;2023-04-04T06:35:31;102082.78;;;13.02;100.00
60371;BME280;48550;40.588;49.684;2023-04-04T06:37:57;102078.13;;;13.22;100.00
60371;BME280;48550;40.588;49.684;2023-04-04T06:40:23;102083.75;;;13.52;100.00
60371;BME280;48550;40.588;49.684;2023-04-04T06:42:49;102071.81;;;13.66;100.00
60371;BME280;48550;40.588;49.684;2023-04-04T06:45:16;102075.22;;;14.05;100.00
60371;BME280;48550;40.588;49.684;2023-04-04T06:47:42;102069.81;;;14.48;100.00
60371;BME280;48550;40.588;49.684;2023-04-04T06:50:10;102081.41;;;14.85;100.00
60371;BME280;48550;40.588;49.684;2023-04-04T06:52:36;102074.50;;;15.08;100.00
60371;BME280;48550;40.588;49.684;2023-04-04T06:55:02;102071.47;;;15.16;100.00
60371;BME280;48550;40.588;49.684;2023-04-04T06:57:28;102064.56;;;16.32;100.00
60371;BME280;48550;40.588;49.684;2023-04-04T06:59:54;102071.03;;;18.01;100.00
60371;BME280;48550;40.588;49.684;2023-04-04T07:02:20;102079.59;;;18.92;100.00
60371;BME280;48550;40.588;49.684;2023-04-04T07:04:45;102086.47;;;19.00;100.00
60371;BME280;48550;40.588;49.684;2023-04-04T07:07:11;102073.53;;;19.66;89.82
60371;BME280;48550;40.588;49.684;2023-04-04T07:09:37;102071.00;;;19.91;85.64
60371;BME280;48550;40.588;49.684;2023-04-04T07:12:03;102071.88;;;20.44;86.84
60371;BME280;48550;40.588;49.684;2023-04-04T07:14:29;102072.78;;;20.60;80.29
60371;BME280;48550;40.588;49.684;2023-04-04T07:16:54;102072.59;;;20.82;81.06
60371;BME280;48550;40.588;49.684;2023-04-04T07:19:20;102064.75;;;21.16;69.91
60371;BME280;48550;40.588;49.684;2023-04-04T07:21:55;102062.66;;;21.64;68.96
60371;BME280;48550;40.588;49.684;2023-04-04T07:24:22;102067.28;;;21.43;66.29
60371;BME280;48550;40.588;49.684;2023-04-04T07:26:47;102056.63;;;21.31;64.47
60371;BME280;48550;40.588;49.684;2023-04-04T07:29:13;102056.44;;;20.70;65.64
60371;BME280;48550;40.588;49.684;2023-04-04T07:31:39;102050.22;;;19.80;72.91
60371;BME280;48550;40.588;49.684;2023-04-04T07:34:05;102051.81;;;18.90;80.87
60371;BME280;48550;40.588;49.684;2023-04-04T07:36:31;102049.06;;;18.25;83.14
60371;BME280;48550;40.588;49.684;2023-04-04T07:38:57;102042.97;;;17.96;89.24
60371;BME280;48550;40.588;49.684;2023-04-04T07:41:23;102038.50;;;18.06;89.10
60371;BME280;48550;40.588;49.684;2023-04-04T07:43:49;102033.59;;;17.70;91.54
60371;BME280;48550;40.588;49.684;2023-04-04T07:46:16;102038.34;;;17.63;93.62
60371;BME280;48550;40.588;49.684;2023-04-04T07:48:42;102028.16;;;17.70;93.54
60371;BME280;48550;40.588;49.684;2023-04-04T07:51:08;102027.16;;;17.59;93.12
60371;BME280;48550;40.588;49.684;2023-04-04T07:53:34;102027.63;;;17.56;95.60
60371;BME280;48550;40.588;49.684;2023-04-04T07:56:00;102026.66;;;17.62;91.26
60371;BME280;48550;40.588;49.684;2023-04-04T07:58:34;102029.53;;;17.56;93.10
60371;BME280;48550;40.588;49.684;2023-04-04T08:01:03;102031.25;;;17.62;92.45
60371;BME280;48550;40.588;49.684;2023-04-04T08:03:29;102029.13;;;17.30;94.28
60371;BME280;48550;40.588;49.684;2023-04-04T08:05:55;102021.72;;;17.42;97.02
60371;BME280;48550;40.588;49.684;2023-04-04T08:08:21;102022.13;;;17.51;96.14
60371;BME280;48550;40.588;49.684;2023-04-04T08:10:46;102026.00;;;17.55;93.42
60371;BME280;48550;40.588;49.684;2023-04-04T08:13:13;102012.50;;;17.60;97.00
60371;BME280;48550;40.588;49.684;2023-04-04T08:15:39;102011.13;;;17.74;95.98
60371;BME280;48550;40.588;49.684;2023-04-04T08:18:05;102003.78;;;17.58;93.09
60371;BME280;48550;40.588;49.684;2023-04-04T08:20:31;102016.44;;;17.53;92.50
60371;BME280;48550;40.588;49.684;2023-04-04T08:22:57;102007.16;;;17.32;97.70
60371;BME280;48550;40.588;49.684;2023-04-04T08:25:23;102007.50;;;17.35;95.90
60371;BME280;48550;40.588;49.684;2023-04-04T08:27:49;102005.09;;;17.39;91.90
60371;BME280;48550;40.588;49.684;2023-04-04T08:30:15;102004.09;;;16.83;100.00
60371;BME280;48550;40.588;49.684;2023-04-04T08:32:41;102000.94;;;16.46;100.00
60371;BME280;48550;40.588;49.684;2023-04-04T08:35:13;102008.75;;;16.19;100.00
60371;BME280;48550;40.588;49.684;2023-04-04T08:37:46;102005.59;;;15.87;100.00
60371;BME280;48550;40.588;49.684;2023-04-04T08:40:12;102005.72;;;15.15;100.00
60371;BME280;48550;40.588;49.684;2023-04-04T08:42:39;102009.66;;;14.89;100.00
60371;BME280;48550;40.588;49.684;2023-04-04T08:45:07;102010.69;;;15.18;100.00
60371;BME280;48550;40.588;49.684;2023-04-04T08:47:37;102002.25;;;15.38;100.00
60371;BME280;48550;40.588;49.684;2023-04-04T08:50:05;102000.69;;;15.61;100.00
60371;BME280;48550;40.588;49.684;2023-04-04T08:52:33;102003.00;;;16.04;100.00
60371;BME280;48550;40.588;49.684;2023-04-04T08:55:01;102006.97;;;16.25;100.00
60371;BME280;48550;40.588;49.684;2023-04-04T08:57:28;102000.34;;;16.44;100.00
60371;BME280;48550;40.588;49.684;2023-04-04T08:59:54;101997.94;;;16.59;100.00
60371;BME280;48550;40.588;49.684;2023-04-04T09:02:29;101995.16;;;16.82;100.00
60371;BME280;48550;40.588;49.684;2023-04-04T09:04:59;101987.78;;;16.95;100.00
60371;BME280;48550;40.588;49.684;2023-04-04T09:07:26;101990.13;;;16.23;100.00
60371;BME280;48550;40.588;49.684;2023-04-04T09:09:53;101986.69;;;16.27;100.00
60371;BME280;48550;40.588;49.684;2023-04-04T09:12:19;101985.00;;;15.86;100.00
60371;BME280;48550;40.588;49.684;2023-04-04T09:14:47;101986.19;;;15.78;100.00
60371;BME280;48550;40.588;49.684;2023-04-04T09:17:15;101981.84;;;15.77;100.00
60371;BME280;48550;40.588;49.684;2023-04-04T09:19:40;101986.31;;;15.72;100.00
60371;BME280;48550;40.588;49.684;2023-04-04T09:22:07;101992.53;;;15.84;100.00
60371;BME280;48550;40.588;49.684;2023-04-04T09:24:41;101991.56;;;15.55;100.00
60371;BME280;48550;40.588;49.684;2023-04-04T09:27:08;101985.91;;;15.56;100.00
60371;BME280;48550;40.588;49.684;2023-04-04T09:29:38;101986.28;;;15.60;100.00
60371;BME280;48550;40.588;49.684;2023-04-04T09:32:08;101990.09;;;15.17;100.00
60371;BME280;48550;40.588;49.684;2023-04-04T09:34:34;101984.47;;;15.19;100.00
60371;BME280;48550;40.588;49.684;2023-04-04T09:37:02;101984.88;;;14.74;100.00
60371;BME280;48550;40.588;49.684;2023-04-04T09:39:28;101976.81;;;14.86;100.00
60371;BME280;48550;40.588;49.684;2023-04-04T09:41:57;101983.69;;;14.88;100.00
60371;BME280;48550;40.588;49.684;2023-04-04T09:44:23;101996.66;;;14.13;100.00
60371;BME280;48550;40.588;49.684;2023-04-04T09:46:49;102002.69;;;13.47;100.00
60371;BME280;48550;40.588;49.684;2023-04-04T09:49:19;102006.84;;;12.80;100.00
60371;BME280;48550;40.588;49.684;2023-04-04T09:51:52;102001.94;;;12.57;100.00
60371;BME280;48550;40.588;49.684;2023-04-04T09:54:22;102001.81;;;12.46;100.00
60371;BME280;48550;40.588;49.684;2023-04-04T09:56:49;101994.13;;;12.49;100.00
60371;BME280;48550;40.588;49.684;2023-04-04T09:59:16;101994.75;;;12.45;100.00
60371;BME280;48550;40.588;49.684;2023-04-04T10:01:44;101993.50;;;11.89;100.00
60371;BME280;48550;40.588;49.684;2023-04-04T10:04:10;102000.31;;;11.65;100.00
60371;BME280;48550;40.588;49.684;2023-04-04T10:06:36;101991.84;;;11.42;100.00
60371;BME280;48550;40.588;49.684;2023-04-04T10:09:03;102001.56;;;11.23;100.00
60371;BME280;48550;40.588;49.684;2023-04-04T10:11:30;101984.81;;;11.28;100.00
60371;BME280;48550;40.588;49.684;2023-04-04T10:13:57;101983.16;;;11.53;100.00
60371;BME280;48550;40.588;49.684;2023-04-04T10:16:24;101982.72;;;11.69;100.00
60371;BME280;48550;40.588;49.684;2023-04-04T10:18:51;101982.91;;;11.74;100.00
60371;BME280;48550;40.588;49.684;2023-04-04T10:21:18;101981.06;;;11.82;100.00
60371;BME280;48550;40.588;49.684;2023-04-04T10:23:45;101980.00;;;11.76;100.00
60371;BME280;48550;40.588;49.684;2023-04-04T10:26:11;101981.06;;;11.68;100.00
60371;BME280;48550;40.588;49.684;2023-04-04T10:28:38;101976.13;;;11.26;100.00
60371;BME280;48550;40.588;49.684;2023-04-04T10:31:24;101977.94;;;11.05;100.00
60371;BME280;48550;40.588;49.684;2023-04-04T10:34:23;101969.25;;;10.97;100.00
60371;BME280;48550;40.588;49.684;2023-04-04T10:36:57;101964.53;;;11.25;100.00
60371;BME280;48550;40.588;49.684;2023-04-04T10:42:14;101966.56;;;10.97;100.00
60371;BME280;48550;40.588;49.684;2023-04-04T10:44:42;101963.97;;;10.49;100.00
60371;BME280;48550;40.588;49.684;2023-04-04T10:47:28;101956.81;;;10.76;100.00
60371;BME280;48550;40.588;49.684;2023-04-04T10:50:24;101958.88;;;10.67;100.00
60371;BME280;48550;40.588;49.684;2023-04-04T10:52:51;101954.53;;;10.73;100.00
60371;BME280;48550;40.588;49.684;2023-04-04T10:55:18;101951.03;;;10.66;100.00
60371;BME280;48550;40.588;49.684;2023-04-04T10:57:48;101951.28;;;10.91;100.00
60371;BME280;48550;40.588;49.684;2023-04-04T11:00:18;101962.44;;;10.94;100.00
60371;BME280;48550;40.588;49.684;2023-04-04T11:03:00;101936.00;;;11.04;100.00
60371;BME280;48550;40.588;49.684;2023-04-04T11:05:34;101949.84;;;11.08;100.00
60371;BME280;48550;40.588;49.684;2023-04-04T11:08:14;101946.72;;;10.85;100.00
60371;BME280;48550;40.588;49.684;2023-04-04T11:10:46;101948.56;;;10.71;100.00
60371;BME280;48550;40.588;49.684;2023-04-04T11:13:30;101940.50;;;10.71;100.00
60371;BME280;48550;40.588;49.684;2023-04-04T11:16:10;101945.88;;;10.84;100.00
60371;BME280;48550;40.588;49.684;2023-04-04T11:21:07;101936.13;;;10.57;100.00
60371;BME280;48550;40.588;49.684;2023-04-04T11:28:57;101922.69;;;10.09;100.00
60371;BME280;48550;40.588;49.684;2023-04-04T11:31:42;101924.66;;;10.28;100.00
60371;BME280;48550;40.588;49.684;2023-04-04T11:34:09;101922.19;;;10.27;100.00
60371;BME280;48550;40.588;49.684;2023-04-04T11:39:27;101918.97;;;10.44;100.00
60371;BME280;48550;40.588;49.684;2023-04-04T11:41:59;101912.28;;;10.34;100.00
60371;BME280;48550;40.588;49.684;2023-04-04T11:44:29;101915.66;;;10.49;100.00
60371;BME280;48550;40.588;49.684;2023-04-04T11:49:33;101912.63;;;10.85;100.00
60371;BME280;48550;40.588;49.684;2023-04-04T11:52:13;101915.94;;;10.80;100.00
60371;BME280;48550;40.588;49.684;2023-04-04T11:54:40;101917.78;;;10.67;100.00
60371;BME280;48550;40.588;49.684;2023-04-04T11:57:17;101907.66;;;10.69;100.00
60371;BME280;48550;40.588;49.684;2023-04-04T11:59:45;101904.16;;;10.88;100.00
60371;BME280;48550;40.588;49.684;2023-04-04T12:02:12;101912.22;;;10.88;100.00
60371;BME280;48550;40.588;49.684;2023-04-04T12:04:39;101912.84;;;10.90;100.00
60371;BME280;48550;40.588;49.684;2023-04-04T12:07:08;101913.06;;;10.95;100.00
60371;BME280;48550;40.588;49.684;2023-04-04T12:09:34;101907.47;;;11.10;100.00
60371;BME280;48550;40.588;49.684;2023-04-04T12:12:01;101904.81;;;11.17;100.00
60371;BME280;48550;40.588;49.684;2023-04-04T12:14:27;101900.66;;;11.34;100.00
60371;BME280;48550;40.588;49.684;2023-04-04T12:16:54;101896.31;;;11.33;100.00
60371;BME280;48550;40.588;49.684;2023-04-04T12:19:22;101891.78;;;11.27;100.00
60371;BME280;48550;40.588;49.684;2023-04-04T12:21:49;101889.91;;;11.14;100.00
60371;BME280;48550;40.588;49.684;2023-04-04T12:24:15;101893.22;;;11.03;100.00
60371;BME280;48550;40.588;49.684;2023-04-04T12:26:44;101893.41;;;10.88;100.00
60371;BME280;48550;40.588;49.684;2023-04-04T12:29:11;101888.25;;;10.80;100.00
60371;BME280;48550;40.588;49.684;2023-04-04T12:31:40;101892.81;;;10.99;100.00
60371;BME280;48550;40.588;49.684;2023-04-04T12:34:06;101907.09;;;11.20;100.00
60371;BME280;48550;40.588;49.684;2023-04-04T12:36:36;101905.19;;;11.40;100.00
60371;BME280;48550;40.588;49.684;2023-04-04T12:39:04;101904.38;;;11.46;100.00
60371;BME280;48550;40.588;49.684;2023-04-04T12:41:32;101897.16;;;11.33;100.00
60371;BME280;48550;40.588;49.684;2023-04-04T12:44:05;101891.97;;;11.45;100.00
60371;BME280;48550;40.588;49.684;2023-04-04T12:46:37;101888.44;;;11.51;100.00
60371;BME280;48550;40.588;49.684;2023-04-04T12:49:05;101889.28;;;11.45;100.00
60371;BME280;48550;40.588;49.684;2023-04-04T12:51:34;101891.97;;;11.45;100.00
60371;BME280;48550;40.588;49.684;2023-04-04T12:54:00;101882.44;;;11.42;100.00